Latest Weather Observations for Friendly Beaches

IDT60801

Issued at 9:02 am EDT Thursday 8 December 2016 (issued every 30 minutes, with the page automatically refreshed every 10 minutes)

About weather observations | Map of weather stations | Latest weather observations for TAS | Other Formats
Station Details ID: 092114 Name: FRIENDLY BEACHES Lat: -42.00 Lon: 148.28 Height: 55.0 m
Data from the previous 72 hours. | See also: Recent months at Friendly Beaches
Date/Time
EDT
Temp
°C
App
Temp
°C
Dew
Point
°C
Rel
Hum
%
Delta-T
°C
Wind Press
QNH
hPa
Press
MSL
hPa
Rain since
9am
mm
Dir  Spd
km/h
Gust
km/h
Spd
kts
Gust
kts
08/08:30am 15.4 12.3 13.4 88 1.1 NNE 22 37 12 20 997.5 997.4 0.0
08/08:00am 16.3 13.5 11.5 73 2.6 N 17 28 9 15 998.3 998.2 0.0
08/07:30am 15.8 13.1 11.6 76 2.3 N 17 35 9 19 998.7 998.6 0.0
08/07:00am 15.1 13.1 10.1 72 2.6 N 11 26 6 14 999.8 999.7 0.0
08/06:30am 14.3 9.9 10.3 77 2.1 N 24 39 13 21 999.3 999.2 0.0
08/06:00am 13.9 10.8 7.2 64 3.3 N 13 28 7 15 1000.1 1000.0 0.0
08/05:30am 13.8 11.5 7.3 65 3.2 NNE 9 17 5 9 1001.2 1001.1 0.0
08/05:00am 13.3 10.1 6.9 65 3.1 N 13 19 7 10 1001.8 1001.6 0.0
08/04:30am 13.3 10.2 7.1 66 3.0 N 13 20 7 11 1002.0 1001.9 0.0
08/04:00am 13.6 9.3 6.9 64 3.3 N 19 28 10 15 1002.4 1002.3 0.0
08/03:30am 13.8 9.6 7.3 65 3.2 N 19 32 10 17 1002.8 1002.7 0.0
08/03:00am 12.4 10.8 8.9 79 1.8 N 7 11 4 6 1003.5 1003.4 0.0
08/02:30am 12.9 11.5 9.4 79 1.8 N 7 15 4 8 1004.2 1004.1 0.0
08/02:00am 13.3 11.3 8.8 74 2.3 N 9 15 5 8 1004.7 1004.6 0.0
08/01:30am 13.3 12.3 9.0 75 2.2 E 4 6 2 3 1005.0 1004.9 0.0
08/01:00am 13.5 12.5 9.0 74 2.3 ENE 4 6 2 3 1005.9 1005.8 0.0
08/12:30am 13.9 12.2 7.7 66 3.1 NW 6 7 3 4 1006.4 1006.3 0.0
08/12:00am 15.1 13.5 7.9 62 3.6 NW 6 9 3 5 1006.7 1006.6 0.0
 
Date/Time
EDT
Temp
°C
App
Temp
°C
Dew
Point
°C
Rel
Hum
%
Delta-T
°C
Wind Press
QNH
hPa
Press
MSL
hPa
Rain since
9am
mm
Dir  Spd
km/h
Gust
km/h
Spd
kts
Gust
kts
07/11:30pm 15.9 13.3 7.9 59 4.0 NW 11 17 6 9 1007.0 1006.9 0.0
07/11:00pm 16.1 14.3 8.1 59 4.1 NW 7 11 4 6 1007.0 1006.9 0.0
07/10:30pm 16.6 13.8 8.6 59 4.1 NW 13 20 7 11 1007.3 1007.2 0.0
07/10:00pm 15.6 13.7 9.1 65 3.4 WNW 9 11 5 6 1007.9 1007.8 0.0
07/09:30pm 16.3 14.5 9.3 63 3.6 NW 9 15 5 8 1007.9 1007.8 0.0
07/09:00pm 16.5 14.3 9.2 62 3.8 WNW 11 17 6 9 1008.1 1008.0 0.0
07/08:30pm 17.2 15.7 9.1 59 4.2 WNW 7 13 4 7 1008.0 1007.9 0.0
07/08:00pm 18.2 16.4 9.3 56 4.7 W 9 15 5 8 1008.1 1008.0 0.0
07/07:30pm 19.2 17.1 9.7 54 5.1 WNW 11 20 6 11 1008.2 1008.1 0.0
07/07:00pm 20.4 18.2 9.3 49 5.9 WNW 11 20 6 11 1008.1 1008.0 0.0
07/06:30pm 20.4 19.7 11.3 56 5.0 N 6 9 3 5 1008.3 1008.2 0.0
07/06:00pm 19.9 19.7 12.9 64 4.0 NNE 6 13 3 7 1008.3 1008.2 0.0
07/05:30pm 19.1 17.8 13.7 71 3.1 NNE 13 17 7 9 1008.3 1008.2 0.0
07/05:00pm 19.8 17.4 12.8 64 4.0 NNE 17 28 9 15 1008.4 1008.3 0.0
07/04:30pm 19.6 17.3 13.1 66 3.7 NE 17 26 9 14 1008.9 1008.8 0.0
07/04:00pm 19.9 15.8 11.4 58 4.7 NNE 24 35 13 19 1009.2 1009.1 0.0
07/03:30pm 20.0 15.4 9.6 51 5.6 NNE 24 37 13 20 1009.4 1009.3 0.0
07/03:00pm 20.9 16.8 10.1 50 5.9 NNE 22 35 12 19 1009.5 1009.4 0.0
07/02:30pm 21.4 17.2 9.6 47 6.3 NNE 22 35 12 19 1009.7 1009.6 0.0
07/02:00pm 21.6 16.0 7.1 39 7.5 NNE 26 39 14 21 1009.8 1009.7 0.0
07/01:30pm 21.8 15.8 7.2 39 7.5 NNE 28 39 15 21 1010.0 1009.9 0.0
07/01:00pm 22.4 17.6 8.9 42 7.2 NNE 24 37 13 20 1010.4 1010.3 0.0
07/12:30pm 20.4 16.8 10.5 53 5.4 NE 20 30 11 16 1010.7 1010.6 0.0
07/12:00pm 20.5 16.1 9.1 48 6.1 NNE 22 33 12 18 1011.0 1010.9 0.0
07/11:30am 20.8 17.1 10.0 50 5.8 NNE 20 33 11 18 1011.3 1011.2 0.0
07/11:00am 19.6 16.0 9.8 53 5.2 NE 19 26 10 14 1011.6 1011.5 0.0
07/10:30am 18.6 15.9 10.2 58 4.5 NE 15 22 8 12 1011.9 1011.8 0.0
07/10:00am 18.0 15.7 9.1 56 4.7 NE 11 15 6 8 1011.9 1011.8 0.0
07/09:30am 17.7 16.1 8.8 56 4.6 ENE 7 13 4 7 1012.1 1012.0 0.0
07/09:00am 17.8 14.9 6.7 48 5.5 NNW 11 17 6 9 1012.2 1012.1 0.0
07/08:30am 16.5 13.8 7.2 54 4.6 WNW 11 20 6 11 1012.2 1012.1 0.0
07/08:00am 15.1 12.0 7.2 59 3.9 WNW 13 20 7 11 1012.0 1011.9 0.0
07/07:30am 13.9 11.5 7.2 64 3.3 W 9 17 5 9 1012.0 1011.9 0.0
07/07:00am 12.6 11.2 7.1 69 2.7 W 4 9 2 5 1012.0 1011.9 0.0
07/06:30am 11.1 9.1 6.3 72 2.3 W 6 7 3 4 1011.7 1011.6 0.0
07/06:00am 10.7 7.7 5.9 72 2.2 WNW 11 15 6 8 1011.3 1011.2 0.0
07/05:30am 10.1 8.4 5.9 75 1.9 WNW 4 4 2 2 1011.0 1010.9 0.0
07/05:00am 9.7 7.7 6.1 78 1.7 NNW 6 9 3 5 1010.8 1010.7 0.0
07/04:30am 10.0 8.5 6.7 80 1.6 NW 4 6 2 3 1010.6 1010.5 0.0
07/04:00am 9.5 7.7 7.3 86 1.0 NW 6 9 3 5 1010.3 1010.2 0.0
07/03:30am 9.6 9.1 7.9 89 0.8 CALM 0 0 0 0 1010.5 1010.4 0.0
07/03:00am 10.0 9.3 8.6 91 0.7 SSE 2 2 1 1 1010.5 1010.4 0.0
07/02:30am 9.6 8.4 8.2 91 0.7 NNW 4 6 2 3 1010.6 1010.5 0.0
07/02:00am 10.1 8.6 8.4 89 0.8 W 6 7 3 4 1010.8 1010.7 0.0
07/01:30am 10.8 10.4 8.2 84 1.3 CALM 0 0 0 0 1010.9 1010.8 0.0
07/01:00am 11.7 9.3 8.6 81 1.5 N 11 17 6 9 1010.9 1010.8 0.0
07/12:30am 11.8 9.4 8.6 81 1.6 N 11 17 6 9 1011.0 1010.9 0.0
07/12:00am 11.4 9.4 8.8 84 1.3 NNE 9 15 5 8 1011.2 1011.1 0.0
 
Date/Time
EDT
Temp
°C
App
Temp
°C
Dew
Point
°C
Rel
Hum
%
Delta-T
°C
Wind Press
QNH
hPa
Press
MSL
hPa
Rain since
9am
mm
Dir  Spd
km/h
Gust
km/h
Spd
kts
Gust
kts
06/11:30pm 11.1 9.1 8.8 86 1.1 N 9 11 5 6 1011.4 1011.3 0.0
06/11:00pm 10.3 8.8 8.4 88 0.9 NNE 6 7 3 4 1011.4 1011.3 0.0
06/10:30pm 10.1 8.4 8.2 88 0.9 N 7 7 4 4 1011.5 1011.4 0.0
06/10:00pm 10.5 9.3 7.9 84 1.3 NNE 4 4 2 2 1011.7 1011.6 0.0
06/09:30pm 11.2 10.0 8.1 81 1.5 ENE 4 6 2 3 1011.5 1011.4 0.0
06/09:00pm 11.6 10.0 7.9 78 1.8 E 6 7 3 4 1011.2 1011.1 0.0
06/08:30pm 12.3 10.1 8.0 75 2.1 SE 9 13 5 7 1010.6 1010.5 0.0
06/08:00pm 13.5 11.0 8.4 71 2.6 SE 11 17 6 9 1010.2 1010.1 0.0
06/07:30pm 14.4 10.3 8.8 69 2.8 SSE 20 28 11 15 1009.8 1009.7 0.0
06/07:00pm 13.7 9.1 8.3 70 2.7 SSE 22 30 12 16 1009.3 1009.2 0.0
06/06:30pm 15.1 11.0 8.6 65 3.3 SSE 20 30 11 16 1009.0 1008.9 0.0
06/06:00pm 17.3 13.7 10.0 62 3.9 SE 19 28 10 15 1008.6 1008.5 0.0
06/05:30pm 16.8 13.0 9.7 63 3.7 SE 20 32 11 17 1008.4 1008.3 0.0
06/05:00pm 17.0 13.3 10.1 64 3.7 SE 20 30 11 16 1008.4 1008.3 0.0
06/04:30pm 16.3 11.5 10.4 68 3.1 SE 26 33 14 18 1008.2 1008.1 0.0
06/04:00pm 15.3 10.0 9.9 70 2.8 SE 28 37 15 20 1008.1 1008.0 0.0
06/03:30pm 15.6 10.0 10.2 70 2.8 SSE 30 41 16 22 1007.7 1007.6 0.0
06/03:00pm 17.6 13.0 11.2 66 3.5 SSE 26 39 14 21 1007.5 1007.4 0.0
06/02:30pm 18.2 14.7 10.1 59 4.3 S 19 28 10 15 1007.6 1007.5 0.0
06/02:00pm 18.7 14.7 11.8 64 3.8 S 24 33 13 18 1007.4 1007.3 0.0
06/01:30pm 18.2 14.3 12.2 68 3.3 SSW 24 39 13 21 1007.7 1007.6 0.0
06/01:00pm 18.3 15.4 12.3 68 3.3 SSE 19 28 10 15 1007.6 1007.5 0.0
06/12:30pm 18.1 16.6 13.2 73 2.8 SSE 13 17 7 9 1008.0 1007.9 0.0
06/12:00pm 19.1 18.2 12.6 66 3.7 SE 9 17 5 9 1008.0 1007.9 0.0
06/11:30am 19.1 17.5 12.8 67 3.6 SE 13 17 7 9 1008.1 1008.0 0.0
06/11:00am 18.4 16.0 12.6 69 3.3 SSE 17 20 9 11 1008.1 1008.0 0.0
06/10:30am 19.1 17.7 13.3 69 3.3 SE 13 19 7 10 1008.3 1008.2 0.0
06/10:00am 18.0 17.0 12.2 69 3.2 SE 9 13 5 7 1009.1 1009.0 0.0
06/09:30am 16.8 16.1 11.9 73 2.7 SE 7 11 4 6 1009.3 1009.2 0.0
06/09:00am 16.1 15.0 12.1 77 2.2 SSE 9 13 5 7 1009.9 1009.8 0.2
06/08:30am 15.6 15.8 12.0 79 2.0 SSE 2 7 1 4 1010.4 1010.3 0.2
06/08:00am 14.2 14.4 11.9 86 1.2 WSW 2 6 1 3 1010.6 1010.5 0.2
06/07:30am 13.7 14.4 12.1 90 0.9 CALM 0 0 0 0 1010.5 1010.4 0.2
06/07:00am 13.1 13.7 12.0 93 0.6 CALM 0 0 0 0 1010.3 1010.2 0.2
06/06:30am 12.8 13.4 11.9 94 0.5 CALM 0 0 0 0 1010.4 1010.3 0.2
06/06:00am 12.6 12.0 11.7 94 0.5 NE 6 9 3 5 1010.1 1010.0 0.2
06/05:30am 12.4 11.5 11.3 93 0.6 NE 7 9 4 5 1009.9 1009.8 0.2
06/05:00am 12.5 11.8 11.4 93 0.6 NNE 6 9 3 5 1010.1 1010.0 0.2
06/04:30am 12.4 11.4 11.0 91 0.7 NNE 7 11 4 6 1010.6 1010.5 0.0
06/04:00am 12.4 12.0 11.0 91 0.7 NNE 4 6 2 3 1010.1 1010.0 0.0
06/03:30am 12.6 11.5 10.8 89 0.9 NNE 7 11 4 6 1010.8 1010.7 0.0
06/03:00am 12.9 11.3 10.3 84 1.3 NE 9 15 5 8 1010.9 1010.8 0.0
06/02:30am 12.8 11.2 10.3 85 1.3 ENE 9 15 5 8 1011.3 1011.2 0.0
06/02:00am 13.1 11.5 10.1 82 1.6 NE 9 15 5 8 1011.7 1011.6 0.0
06/01:30am 13.3 10.8 9.7 79 1.8 ENE 13 20 7 11 1011.7 1011.6 0.0
06/01:00am 13.3 10.4 9.7 79 1.8 NE 15 20 8 11 1012.0 1011.9 0.0
06/12:30am 13.7 11.2 9.6 76 2.1 ENE 13 24 7 13 1012.0 1011.9 0.0
06/12:00am 13.8 11.2 9.5 75 2.2 ENE 13 20 7 11 1012.9 1012.8 0.0
 
Date/Time
EDT
Temp
°C
App
Temp
°C
Dew
Point
°C
Rel
Hum
%
Delta-T
°C
Wind Press
QNH
hPa
Press
MSL
hPa
Rain since
9am
mm
Dir  Spd
km/h
Gust
km/h
Spd
kts
Gust
kts
05/11:30pm 13.8 11.6 9.5 75 2.2 E 11 19 6 10 1013.3 1013.2 0.0
05/11:00pm 13.8 10.8 9.3 74 2.3 E 15 19 8 10 1013.2 1013.1 0.0
05/10:30pm 13.9 10.6 9.5 75 2.3 E 17 20 9 11 1013.2 1013.1 0.0
05/10:00pm 13.9 10.5 9.3 74 2.4 ESE 17 24 9 13 1012.7 1012.6 0.0
05/09:30pm 13.9 10.9 9.3 74 2.4 ESE 15 20 8 11 1012.6 1012.5 0.0
05/09:00pm 14.0 11.1 9.8 76 2.2 E 15 22 8 12 1012.3 1012.2 0.0
05/08:30pm 14.0 10.4 9.8 76 2.2 E 19 24 10 13 1011.7 1011.6 0.0
05/08:00pm 14.1 10.4 9.5 74 2.4 ESE 19 26 10 14 1011.2 1011.1 0.0
05/07:30pm 15.1 11.6 10.1 72 2.6 ESE 19 26 10 14 1010.5 1010.4 0.0
05/07:00pm 15.4 11.9 10.2 71 2.7 ESE 19 26 10 14 1010.2 1010.1 0.0
05/06:30pm 16.3 12.7 10.4 68 3.1 ESE 20 26 11 14 1010.1 1010.0 0.0
05/06:00pm 17.6 14.1 10.9 65 3.6 ESE 20 28 11 15 1009.2 1009.1 0.0
05/05:30pm 18.4 14.2 11.2 63 3.9 SE 24 32 13 17 1008.6 1008.5 0.0
05/05:00pm 19.0 15.1 12.0 64 3.9 ESE 24 33 13 18 1008.3 1008.2 0.0
05/04:30pm 19.1 15.1 11.7 62 4.1 ESE 24 32 13 17 1007.7 1007.6 0.0
05/04:00pm 19.2 14.5 12.0 63 4.0 SE 28 37 15 20 1007.2 1007.1 0.0
05/03:30pm 22.1 20.1 11.5 51 5.9 E 13 22 7 12 1006.0 1005.9 0.0
05/03:00pm 25.4 20.7 9.3 36 8.8 SSE 24 33 13 18 1005.0 1004.9 0.0
05/02:30pm 25.0 20.8 9.7 38 8.4 SSE 22 33 12 18 1005.0 1004.9 0.0
05/02:00pm 23.8 19.8 9.0 39 8.0 SE 20 32 11 17 1004.4 1004.3 0.0
05/01:30pm 25.1 20.8 9.4 37 8.6 SE 22 32 12 17 1004.4 1004.3 0.0
05/01:00pm 24.6 22.2 8.5 36 8.7 ESE 11 19 6 10 1003.9 1003.8 0.0
05/12:30pm 24.7 22.0 7.4 33 9.1 NW 11 17 6 9 1003.6 1003.5 0.0
05/12:00pm 23.9 20.9 5.8 31 9.3 WSW 11 20 6 11 1003.3 1003.2 0.0
05/11:30am 23.6 19.9 8.1 37 8.2 S 17 28 9 15 1002.9 1002.8 0.0
05/11:00am 23.8 20.0 9.0 39 8.0 S 19 30 10 16 1002.5 1002.4 0.0
05/10:30am 23.1 20.2 6.4 34 8.6 WSW 11 24 6 13 1002.2 1002.1 0.0
05/10:00am 22.7 19.3 7.7 38 7.9 W 15 20 8 11 1001.9 1001.8 0.0
05/09:30am 22.4 19.4 7.8 39 7.6 WSW 13 20 7 11 1001.5 1001.3 0.0

Other Formats:

Comma delimited format used in spreadsheet applications
http://www.bom.gov.au/fwo/IDT60801/IDT60801.94987.axf

JavaScript Object Notation format (JSON) in row-major order
http://www.bom.gov.au/fwo/IDT60801/IDT60801.94987.json